Terminal Aerodrome Forecast
Issued by NWS Hastings, NE

Home | Current Version | Previous Version | Text Only | Print | Product List | Glossary On
Versions: 1 2 3 4 5 6 7 8 9 10 11 12 13 14 15 16 17 18 19 20 21 22 23 24 25 26 27 28 29 30 31
000
FTUS43 KGID 230542
TAFGRI
TAF
KGRI 230542Z 2306/2406 15008KT P6SM -DZ SCT005 OVC020
     FM230730 14008KT 4SM -DZ BR BKN005 OVC020
     FM231500 13012KT 5SM -DZ BR SCT005 BKN015
     FM231800 14015KT P6SM -RA SCT015 BKN025
     FM240000 12008KT 5SM -DZ BR SCT005 BKN015=

USA.gov is the U.S. government's official web portal to all federal, state and local government web resources and services.